Ambler, AK (99786)

12:47 PM AKST on February 09, 2016 (GMT -0900)
Ambler | | Change Station
CLOSE
Current Station
Airport
Location: Ambler,
Elevation: 289 ft
Nearby Weather Stations

Elev 289 ft 67.11 °N, 157.86 °W | Updated 11 minutes ago

Clear
Clear
9 °F
Feels Like -6 °F
N
12
Wind Variable Wind from NNE

Today
High -- | Low -- °F
--% Chance of Precip.
Yesterday
High -- | Low -- °F
Precip. -- in
Pressure 30.24 in
Visibility 10.0 miles
Clouds Clear
Windchill -6 °F
Dew Point 1 °F
Humidity 73%
Rainfall 0.00 in
Snow Depth Not available.
10:07 AM 5:24 PM
New Moon, 2% visible
METAR PAFM 092136Z AUTO 03010KT 10SM CLR M13/M17 A3024 RMK AO1
Pressure 30.24 in
Visibility 10.0 miles
Clouds Clear
Windchill -6 °F
Dew Point 1 °F
Humidity 73%
Rainfall 0.00 in
Snow Depth Not available.
10:07 AM 5:24 PM
New Moon, 2% visible
METAR PAFM 092136Z AUTO 03010KT 10SM CLR M13/M17 A3024 RMK AO1

10-Day Weather Forecast

Almanac

Astronomy

Feb. 09, 2016 Rise Set
Actual Time
Civil Twilight
Nautical Twilight
Astronomical Twilight
Moon
Length of Visible Light
Length of Day
Tomorrow will be .
, % of the Moon is Illuminated

Today's Extremes

State Highs State Lows

Community

WunderPhotos

Upload Photos

1,891,710 photos uploaded!

WunderBlog® & News

Nearby

Air Quality

  Air Quality AQ Index Pollutant
Not available.

Snow Depth

Station Depth Elevation

Earthquake Activity

City Distance Mag. Time & Date
Minimum magnitude displayed is 2.5.

Coastal Water Temperatures

Place Temperature

Stations

Nearby Weather Stations

Station Location Temp. Windchill Dew Point Humidity Wind Precip. Elev Updated Type
                   

Watches & Warnings

There are currently no watches in effect.